x

South Brooks (46132) Wave Buoy

4:00am - Tue 19th Sep 2017 All times are PDT. -7 hours from GMT.

  • Sig Wave height 13.4ft
  • Peak Period 13s
  • Wind
    16mph, 20mph gusts
  • Sea Temp 56°f
  • Air Temp 54°f
  • Sea Pressure 1006.2mb
  • South Brooks
  • South Brooks

More Historic Weather Station data

Upgrade to MSW Pro to gain access to the past 30 days of data for over 8000 Wavebouys and Weather Stations around the globe.

Join

Comparision Forecast

View Surf forecast
   
Tue 09/19 4:00am 13.5ft 13s 16 20 mph 1006.2mb 56f 54f
3:00am 13ft 14s 13 18 mph 1006mb 56f 54f
2:00am 14ft 14s 11 13 mph 1005.8mb 56f 54f
1:00am 13ft 14s 9 11 mph 1005.6mb 56f 54f
12:00am 12ft 14s 9 13 mph 1005mb 56f 54f
Mon 09/18 11:00pm 15.5ft 15s 13 18 mph 1004.3mb 56f 54f
10:00pm 13ft 16s 13 20 mph 1003.9mb 56f 55f
9:00pm 13ft 14s 13 22 mph 1003.8mb 56f 55f
8:00pm 12.5ft 14s 18 22 mph 1003.2mb 56f 55f
7:00pm 13ft 12s 18 25 mph 1003.1mb 56f 54f
6:00pm 14.5ft 15s 20 27 mph 1002.8mb 56f 54f
5:00pm 15ft 15s 18 25 mph 1002.6mb 56f 55f
4:00pm 13.5ft 15s 11 16 mph 1002.5mb 56f 55f
3:00pm 14.5ft 13s 13 18 mph 1002.5mb 56f 52f
2:00pm 13ft 14s 11 22 mph 1002.3mb 56f 53f
1:00pm 13ft 15s 16 20 mph 1002.1mb 56f 54f
12:00pm 11ft 10s 20 25 mph 1001.9mb 56f 56f
11:00am 11ft 11s 27 34 mph 1001.7mb 56f 53f
9:00am 9.5ft 11s 13 18 mph 1002.3mb 56f 54f
8:00am 9ft 11s 18 22 mph 1002.5mb 56f 57f
7:00am 8.5ft 11s 16 20 mph 1003.3mb 56f 56f
6:00am 7.5ft 10s 16 20 mph 1003.7mb 56f 56f
5:00am 8.5ft 11s 4 7 mph 1004.5mb 56f 55f
4:00am 8ft 10s 7 9 mph 1004.8mb 56f 54f
3:00am 9ft 10s 4 7 mph 1005.2mb 56f 52f
2:00am 9.5ft 9s 11 16 mph 1005.4mb 56f 55f
1:00am 9ft 10s 13 16 mph 1005.8mb 56f 53f
12:00am 9ft 9s  -  4 mph 1005.8mb 56f 55f
Sun 09/17 11:00pm 9ft 8s 7 9 mph 1006mb 56f 55f
10:00pm 8ft 8s 9 11 mph 1005.9mb 56f 55f
9:00pm 7.5ft 8s 13 16 mph 1005.8mb 56f 56f
8:00pm 7.5ft 8s 7 9 mph 1006mb 57f 55f
7:00pm 7.5ft 8s 18 25 mph 1006mb 56f 54f
6:00pm 7ft 8s 18 25 mph 1006mb 56f 54f
5:00pm 6.5ft 8s 11 16 mph 1006.3mb 57f 58f
4:00pm 6ft 6s 13 16 mph 1006.3mb 57f 57f
3:00pm 6ft 7s 9 11 mph 1006.4mb 57f 57f
2:00pm 6ft 6s 11 18 mph 1006.2mb 56f 54f
1:00pm 6ft 7s 13 18 mph 1005.4mb 57f 58f
12:00pm 6ft 6s 13 16 mph 1005mb 57f 57f
11:00am 6ft 6s 22 27 mph 1004.6mb 57f 56f
10:00am 6ft 6s 2 4 mph 1004.7mb 56f 57f
9:00am 6ft 6s 7 9 mph 1004.4mb 57f 56f
8:00am 6.5ft 6s 7 9 mph 1004.6mb 56f 55f
7:00am 7ft 6s 13 20 mph 1004.1mb 56f 56f
6:00am 7ft 5s 29 36 mph 1003.1mb 57f 56f
5:00am 5ft 5s 29 36 mph 1003.9mb 57f 57f
4:00am 4.5ft 4s 25 31 mph 1005.9mb 57f 58f
3:00am 3.5ft 9s 20 25 mph 1007.1mb 56f 58f
2:00am 3ft 9s 18 22 mph 1008.3mb 56f 58f
1:00am 2.5ft 10s 16 20 mph 1009.3mb 56f 58f
12:00am 3ft 9s 13 18 mph 1009.5mb 56f 58f
Sat 09/16 11:00pm 3.5ft 10s 11 16 mph 1010.5mb 57f 57f
10:00pm 3.5ft 10s 9 13 mph 1010.6mb 57f 56f
9:00pm 3.5ft 10s 2 2 mph 1012.1mb 57f 56f
8:00pm 3.5ft 10s 7 7 mph 1012.8mb 57f 56f
7:00pm 3.5ft 9s 4 7 mph 1013.2mb 57f 56f
6:00pm 3.5ft 11s 4 7 mph 1013.3mb 58f 56f
5:00pm 3.5ft 10s 7 7 mph 1014.1mb 58f 56f
4:00pm 3.5ft 10s  -  2 mph 1014.7mb 58f 57f
3:00pm 3.5ft 11s  -  2 mph 1014.8mb 58f 58f
2:00pm 4ft 10s 4 7 mph 1015.3mb 57f 57f
1:00pm 4.5ft 11s 4 7 mph 1015.5mb 57f 57f
12:00pm 4ft 10s 9 11 mph 1015.9mb 57f 56f
11:00am 4.5ft 10s 4 7 mph 1016.1mb 56f 57f
10:00am 4.5ft 11s 9 11 mph 1015.8mb 56f 56f
9:00am 5ft 10s 11 13 mph 1016.1mb 56f 56f
8:00am 4.5ft 11s 13 18 mph 1016.3mb 56f 55f
7:00am 4.5ft 11s 13 16 mph 1016.2mb 56f 55f
6:00am 4.5ft 6s 13 16 mph 1015.8mb 56f 56f
5:00am 5ft 7s 18 20 mph 1015.8mb 56f 56f
4:00am 5ft 7s 18 20 mph 1016mb 56f 55f
3:00am 5ft 5s 18 20 mph 1015.9mb 56f 56f
2:00am 5ft 7s 22 25 mph 1016.1mb 56f 56f
1:00am 4.5ft 7s 20 22 mph 1016.4mb 56f 56f
12:00am 4.5ft 5s 16 20 mph 1016.7mb 56f 56f
Fri 09/15 11:00pm 4.5ft 5s 16 18 mph 1016.8mb 56f 56f
10:00pm 4.5ft 8s 18 20 mph 1016.9mb 56f 56f
9:00pm 4.5ft 7s 20 22 mph 1016.8mb 56f 56f
8:00pm 4.5ft 8s 20 25 mph 1017.1mb 56f 56f
7:00pm 4.5ft 8s 20 22 mph 1017.3mb 56f 56f
6:00pm 4.5ft 8s 16 20 mph 1018.5mb 56f 56f
5:00pm 4ft 8s 16 20 mph 1018.1mb 56f 56f
4:00pm 4.5ft 8s 13 16 mph 1018.8mb 56f 56f
3:00pm 4.5ft 8s 13 16 mph 1018.9mb 56f 56f
2:00pm 4ft 8s 13 18 mph 1019.2mb 56f 56f
1:00pm 4.5ft 7s 13 16 mph 1019.6mb 56f 56f